This is the latest recevied weather packets stored in our database for station/object KD0MAC. If no packets are shown the sender has not sent any weather packets the latest 10 day(s).
| Time | Temp. | Humidity | Pressure | Rain* | Wind** | Luminosity | Snow |
|---|---|---|---|---|---|---|---|
| 1777149441 | 16.67° C | 56% | 1008.5 hPa | 0 mm | - | 376 W/m² | - |
| 1777149141 | 16.11° C | 60% | 1008.1 hPa | 0 mm | - | 276 W/m² | - |
| 1777148840 | 16.11° C | 59% | 1008.5 hPa | 0 mm | - | 223 W/m² | - |
| 1777148540 | 17.22° C | 56% | 1008.1 hPa | 0 mm | - | 262 W/m² | - |
| 1777148241 | 17.78° C | 54% | 1008.1 hPa | 0 mm | - | 225 W/m² | - |
| 1777147940 | 17.78° C | 56% | 1008.1 hPa | 0 mm | - | 276 W/m² | - |
| 1777147641 | 17.22° C | 59% | 1007.8 hPa | 0 mm | - | 275 W/m² | - |
| 1777147340 | 16.67° C | 61% | 1007.8 hPa | 0 mm | - | 171 W/m² | - |
| 1777147041 | 16.67° C | 60% | 1007.8 hPa | 0 mm | - | 107 W/m² | - |
| 1777146741 | 17.22° C | 58% | 1007.8 hPa | 0 mm | - | 102 W/m² | - |
| 1777146441 | 21.11° C | 47% | 1007.8 hPa | 0 mm | - | 112 W/m² | - |
| 1777146141 | 26.11° C | 47% | 1007.5 hPa | 0 mm | - | 288 W/m² | - |
| 1777145840 | 24.44° C | 51% | 1007.5 hPa | 0 mm | - | 702 W/m² | - |
| 1777145541 | 23.33° C | 55% | 1007.5 hPa | 0 mm | - | 371 W/m² | - |
| 1777145240 | 23.33° C | 55% | 1007.1 hPa | 0 mm | - | 363 W/m² | - |
| 1777144941 | 21.67° C | 60% | 1007.5 hPa | 0 mm | - | 273 W/m² | - |
| 1777144640 | 22.22° C | 58% | 1007.5 hPa | 0 mm | - | 170 W/m² | - |
| 1777144341 | 22.78° C | 56% | 1007.1 hPa | 0 mm | - | 249 W/m² | - |
| 1777144041 | 22.22° C | 59% | 1007.1 hPa | 0 mm | - | 254 W/m² | - |
| 1777143742 | 22.22° C | 58% | 1007.1 hPa | 0 mm | - | 225 W/m² | - |
| 1777143440 | 22.22° C | 60% | 1007.1 hPa | 0 mm | - | 638 W/m² | - |
| 1777143140 | 21.67° C | 60% | 1007.5 hPa | 0 mm | - | 201 W/m² | - |
| 1777142840 | 22.22° C | 59% | 1007.5 hPa | 0 mm | - | 553 W/m² | - |
| 1777142540 | 22.22° C | 59% | 1007.5 hPa | 0 mm | - | 174 W/m² | - |
| 1777142240 | 22.22° C | 60% | 1007.8 hPa | 0 mm | - | 281 W/m² | - |
* Rain latest hour (hover to see other rain measurements)
** Current wind speed in m/s (hover to see current wind gust speed)